Time;durP1;ratioP1;P1;durP2;ratioP2;P2;SDS_P1;SDS_P2;PMS_P1;PMS_P2;Temp;Humidity;BMP_temperature;BMP_pressure;BME280_temperature;BME280_humidity;BME280_pressure;Samples;Min_cycle;Max_cycle;Signal;HPM_P1;HPM_P2
2021/03/19 00:00:57;;;;;;;3.70;2.88;;;9.40;99.90;;;;;;5118903;28;20205;-37
2021/03/19 00:03:28;;;;;;;2.67;2.10;;;9.30;99.90;;;;;;5121821;28;20205;-37
2021/03/19 00:06:01;;;;;;;4.30;3.10;;;9.20;99.90;;;;;;5119026;28;20576;-37
2021/03/19 00:08:31;;;;;;;3.70;3.03;;;9.20;99.90;;;;;;5130347;27;20196;-37
2021/03/19 00:11:01;;;;;;;4.90;3.08;;;9.10;99.90;;;;;;5125601;28;20540;-37
2021/03/19 00:13:33;;;;;;;3.60;2.78;;;9.00;99.90;;;;;;5125274;28;20207;-38
2021/03/19 00:16:03;;;;;;;4.60;2.72;;;9.00;99.90;;;;;;5124150;28;20200;-38
2021/03/19 00:18:33;;;;;;;2.95;2.58;;;9.00;99.90;;;;;;5123126;28;20208;-38
2021/03/19 00:21:04;;;;;;;2.97;1.98;;;9.00;99.90;;;;;;5118965;28;20214;-38
2021/03/19 00:23:34;;;;;;;2.40;2.20;;;8.90;99.90;;;;;;5123935;28;20212;-38
2021/03/19 00:26:04;;;;;;;3.67;2.38;;;9.00;99.90;;;;;;5122049;28;20207;-37
2021/03/19 00:28:35;;;;;;;4.43;2.60;;;9.00;99.90;;;;;;5125342;28;20199;-38
2021/03/19 00:31:08;;;;;;;4.60;2.50;;;9.00;99.90;;;;;;5125294;28;20196;-38
2021/03/19 00:33:38;;;;;;;5.32;3.50;;;9.10;99.90;;;;;;5125900;28;20215;-38
2021/03/19 00:36:09;;;;;;;4.35;3.10;;;9.10;99.90;;;;;;5125088;28;20660;-39
2021/03/19 00:38:39;;;;;;;1.85;1.70;;;9.10;99.90;;;;;;5123899;28;20547;-39
2021/03/19 00:41:10;;;;;;;3.15;2.00;;;9.00;99.90;;;;;;5121494;28;20282;-38
2021/03/19 00:43:42;;;;;;;1.95;1.73;;;8.90;99.90;;;;;;5124206;28;20542;-38
2021/03/19 00:46:12;;;;;;;4.22;2.17;;;8.90;99.90;;;;;;5122085;28;20208;-37
2021/03/19 00:48:43;;;;;;;6.25;2.05;;;8.80;99.90;;;;;;5122608;28;20211;-37
2021/03/19 00:51:14;;;;;;;2.58;1.85;;;8.90;99.90;;;;;;5120789;28;20287;-39
2021/03/19 00:53:44;;;;;;;3.20;2.47;;;9.00;99.90;;;;;;5122924;28;20204;-38
2021/03/19 00:56:14;;;;;;;2.35;2.00;;;9.00;99.90;;;;;;5124064;28;20250;-38
2021/03/19 00:58:45;;;;;;;2.13;1.90;;;9.10;99.90;;;;;;5125117;28;20246;-37
2021/03/19 01:01:15;;;;;;;2.85;2.20;;;9.10;99.90;;;;;;5124244;28;20200;-38
2021/03/19 01:03:46;;;;;;;2.13;1.70;;;9.10;99.90;;;;;;5124839;28;20320;-38
2021/03/19 01:06:17;;;;;;;2.83;2.10;;;9.20;99.90;;;;;;5124322;28;20697;-38
2021/03/19 01:08:47;;;;;;;2.60;2.00;;;9.10;99.90;;;;;;5122059;28;20211;-38
2021/03/19 01:11:17;;;;;;;7.00;2.38;;;9.10;99.90;;;;;;5121322;28;20529;-38
2021/03/19 01:13:48;;;;;;;5.00;2.75;;;9.10;99.90;;;;;;5122840;28;20288;-38
2021/03/19 01:16:18;;;;;;;4.15;2.58;;;9.10;99.90;;;;;;5123705;28;20196;-39
2021/03/19 01:18:49;;;;;;;3.42;1.95;;;9.10;99.90;;;;;;5124266;28;20191;-38
2021/03/19 01:21:20;;;;;;;3.08;2.70;;;9.00;99.90;;;;;;5123344;28;20333;-38
2021/03/19 01:23:51;;;;;;;3.70;3.38;;;8.90;99.90;;;;;;5124700;28;20247;-38
2021/03/19 01:26:21;;;;;;;4.10;2.85;;;8.90;99.90;;;;;;5123460;28;20257;-38
2021/03/19 01:28:52;;;;;;;4.35;3.13;;;8.90;99.90;;;;;;5125063;28;20229;-38
2021/03/19 01:31:25;;;;;;;5.43;2.92;;;8.90;99.90;;;;;;5122526;27;20229;-38
2021/03/19 01:33:56;;;;;;;3.22;2.90;;;8.90;99.90;;;;;;5123676;28;20234;-38
2021/03/19 01:36:26;;;;;;;4.18;3.20;;;8.90;99.90;;;;;;5119475;28;20651;-37
2021/03/19 01:38:57;;;;;;;3.58;3.20;;;8.90;99.90;;;;;;5124069;28;20210;-37
2021/03/19 01:41:27;;;;;;;3.88;3.58;;;8.90;99.90;;;;;;5122482;28;20327;-36
2021/03/19 01:43:59;;;;;;;6.20;4.30;;;8.90;99.90;;;;;;5124298;28;20639;-37
2021/03/19 01:47:05;;;;;;;5.78;4.40;;;8.90;99.90;;;;;;5123663;28;20204;-36
2021/03/19 01:50:12;;;;;;;4.95;4.45;;;8.90;99.90;;;;;;5122576;28;20290;-36
2021/03/19 01:53:18;;;;;;;8.07;5.35;;;8.90;99.90;;;;;;5122491;28;20231;-36
2021/03/19 01:56:25;;;;;;;5.38;4.30;;;8.90;99.90;;;;;;5123539;28;20201;-38
2021/03/19 01:59:32;;;;;;;5.25;4.15;;;8.90;99.90;;;;;;5123480;28;20200;-35
2021/03/19 02:02:38;;;;;;;5.85;4.82;;;8.80;99.90;;;;;;5122839;28;20204;-37
2021/03/19 02:05:46;;;;;;;5.50;5.00;;;8.80;99.90;;;;;;5123936;28;20214;-37
2021/03/19 02:08:52;;;;;;;6.35;4.93;;;8.80;99.90;;;;;;5112437;28;20195;-37
2021/03/19 02:11:58;;;;;;;6.22;5.22;;;8.80;99.90;;;;;;5121086;28;20200;-36
2021/03/19 02:15:18;;;;;;;4.75;4.35;;;8.80;99.90;;;;;;5108740;28;20207;-36
2021/03/19 02:18:25;;;;;;;4.68;4.22;;;8.80;99.90;;;;;;5020115;28;20253;-36
2021/03/19 02:21:32;;;;;;;4.97;4.10;;;8.80;99.90;;;;;;5020017;28;20203;-35
2021/03/19 02:24:38;;;;;;;5.25;4.75;;;8.80;99.90;;;;;;5032331;28;20194;-35
2021/03/19 02:27:44;;;;;;;5.10;4.55;;;8.80;99.90;;;;;;5011833;28;20196;-36
2021/03/19 02:30:50;;;;;;;4.78;4.28;;;8.80;99.90;;;;;;5019467;28;20195;-37
2021/03/19 02:33:22;;;;;;;4.53;4.13;;;8.90;99.90;;;;;;5020128;28;20223;-37
2021/03/19 02:35:55;;;;;;;5.43;3.97;;;8.90;99.90;;;;;;5021254;28;20258;-37
2021/03/19 02:38:27;;;;;;;5.18;4.68;;;8.90;99.90;;;;;;5016636;28;20219;-37
2021/03/19 02:43:45;;;;;;;7.57;5.20;;;9.00;99.90;;;;;;5018339;28;20330;-36
2021/03/19 02:46:15;;;;;;;6.18;5.03;;;9.10;99.90;;;;;;5020351;28;20207;-38
2021/03/19 02:48:46;;;;;;;6.22;5.45;;;9.10;99.90;;;;;;5089644;28;20216;-37
2021/03/19 02:51:16;;;;;;;6.20;5.60;;;9.10;99.90;;;;;;5126459;28;20216;-38
2021/03/19 02:53:46;;;;;;;6.20;4.47;;;9.10;99.90;;;;;;5125310;28;20196;-37
2021/03/19 02:56:17;;;;;;;5.85;5.30;;;9.10;99.90;;;;;;5126173;28;20252;-46
2021/03/19 02:58:47;;;;;;;6.07;5.50;;;9.10;99.90;;;;;;5127526;28;20236;-37
2021/03/19 03:01:16;;;;;;;5.25;4.75;;;9.00;99.90;;;;;;5126464;28;20257;-38
2021/03/19 03:03:48;;;;;;;5.70;5.18;;;9.00;99.90;;;;;;5127433;28;20211;-37
2021/03/19 03:06:18;;;;;;;5.00;4.57;;;8.90;99.90;;;;;;5126848;28;20189;-38
2021/03/19 03:08:48;;;;;;;5.57;4.90;;;8.80;99.90;;;;;;5127249;28;20200;-38
2021/03/19 03:11:18;;;;;;;7.53;5.40;;;8.80;99.90;;;;;;5124849;28;20226;-38
2021/03/19 03:13:49;;;;;;;6.13;4.85;;;8.80;99.90;;;;;;5126511;28;20204;-38
2021/03/19 03:16:19;;;;;;;8.50;6.10;;;8.80;99.90;;;;;;5125010;28;20226;-38
2021/03/19 03:18:51;;;;;;;5.70;4.95;;;8.80;99.90;;;;;;5127009;28;20200;-38
2021/03/19 03:21:21;;;;;;;6.10;5.43;;;8.80;99.90;;;;;;5125912;28;20265;-38
2021/03/19 03:23:51;;;;;;;6.18;5.60;;;8.80;99.90;;;;;;5120094;28;20208;-39
2021/03/19 03:26:21;;;;;;;8.63;5.40;;;8.80;99.90;;;;;;5125598;28;20200;-39
2021/03/19 03:28:51;;;;;;;5.93;5.10;;;8.80;99.90;;;;;;5126486;28;20226;-38
2021/03/19 03:31:21;;;;;;;5.53;5.03;;;8.80;99.90;;;;;;5122708;28;20250;-39
2021/03/19 03:33:52;;;;;;;4.90;4.45;;;8.80;99.90;;;;;;5125922;28;20212;-39
2021/03/19 03:36:23;;;;;;;7.32;4.95;;;8.90;99.90;;;;;;5125177;28;20341;-38
2021/03/19 03:38:53;;;;;;;6.03;4.70;;;8.90;99.90;;;;;;5126411;28;20222;-39
2021/03/19 03:41:28;;;;;;;6.15;5.60;;;8.90;99.90;;;;;;5124889;28;20289;-39
2021/03/19 03:43:58;;;;;;;7.05;5.00;;;8.90;99.90;;;;;;5126516;28;20636;-38
2021/03/19 03:46:29;;;;;;;5.97;5.35;;;9.00;99.90;;;;;;5125675;28;20212;-38
2021/03/19 03:49:02;;;;;;;5.55;5.05;;;8.90;99.90;;;;;;5125982;28;20258;-39
2021/03/19 03:51:32;;;;;;;5.15;4.40;;;8.80;99.90;;;;;;5125115;28;20215;-38
2021/03/19 03:54:02;;;;;;;6.60;4.65;;;8.80;99.90;;;;;;5125923;28;20256;-39
2021/03/19 03:56:33;;;;;;;7.47;4.57;;;8.80;99.90;;;;;;5124909;28;21474;-38
2021/03/19 03:59:05;;;;;;;6.40;5.80;;;8.70;99.90;;;;;;5124434;28;20210;-39
2021/03/19 04:01:37;;;;;;;5.15;4.65;;;8.70;99.90;;;;;;5124524;28;20261;-39
2021/03/19 04:04:10;;;;;;;8.48;5.40;;;8.60;99.90;;;;;;5125969;28;20208;-38
2021/03/19 04:06:40;;;;;;;5.00;4.18;;;8.70;99.90;;;;;;5121944;28;20209;-39
2021/03/19 04:09:10;;;;;;;4.85;4.00;;;8.70;99.90;;;;;;5126306;28;20196;-39
2021/03/19 04:11:40;;;;;;;5.25;3.92;;;8.70;99.90;;;;;;5124222;28;20648;-38
2021/03/19 04:14:10;;;;;;;5.32;4.80;;;8.80;99.90;;;;;;5122185;28;20230;-38
2021/03/19 04:16:40;;;;;;;7.20;4.50;;;8.80;99.90;;;;;;5121646;28;20196;-38
2021/03/19 04:19:12;;;;;;;6.80;5.55;;;8.70;99.90;;;;;;5125741;28;20297;-37
2021/03/19 04:21:42;;;;;;;5.93;5.43;;;8.70;99.90;;;;;;5125151;28;20310;-38
2021/03/19 04:24:13;;;;;;;6.95;5.28;;;8.70;99.90;;;;;;5125812;28;20241;-38
2021/03/19 04:26:43;;;;;;;6.30;5.45;;;8.70;99.90;;;;;;5109157;28;20275;-38
2021/03/19 04:29:13;;;;;;;6.32;5.72;;;8.80;99.90;;;;;;5125788;28;20258;-38
2021/03/19 04:31:42;;;;;;;6.88;5.30;;;8.80;99.90;;;;;;5124516;28;20286;-38
2021/03/19 04:34:14;;;;;;;5.80;5.20;;;8.80;99.90;;;;;;5125515;28;20295;-38
2021/03/19 04:36:46;;;;;;;6.65;5.60;;;8.90;99.90;;;;;;5125296;28;20204;-38
2021/03/19 04:39:19;;;;;;;7.63;6.20;;;8.90;99.90;;;;;;5125746;28;20200;-38
2021/03/19 04:41:53;;;;;;;6.63;6.03;;;8.90;99.90;;;;;;5124045;28;20214;-38
2021/03/19 04:44:25;;;;;;;6.95;6.43;;;8.80;99.90;;;;;;5125023;28;20233;-38
2021/03/19 04:46:55;;;;;;;7.05;6.32;;;8.70;99.90;;;;;;5124965;28;20201;-38
2021/03/19 04:49:26;;;;;;;6.57;5.95;;;8.60;99.90;;;;;;5125248;28;20292;-38
2021/03/19 04:51:57;;;;;;;8.30;7.28;;;8.60;99.90;;;;;;5124515;28;20345;-37
2021/03/19 04:54:26;;;;;;;8.13;7.22;;;8.60;99.90;;;;;;5125011;28;20261;-37
2021/03/19 04:56:57;;;;;;;8.23;7.50;;;8.50;99.90;;;;;;5124080;28;20207;-38
2021/03/19 04:59:27;;;;;;;10.10;7.88;;;8.50;99.90;;;;;;5124842;28;20212;-37
2021/03/19 05:01:59;;;;;;;8.63;7.45;;;8.50;99.90;;;;;;5124439;28;20224;-38
2021/03/19 05:04:31;;;;;;;9.45;7.10;;;8.50;99.90;;;;;;5124228;28;20199;-37
2021/03/19 05:07:06;;;;;;;8.18;6.88;;;8.50;99.90;;;;;;5122592;28;20223;-38
2021/03/19 05:09:36;;;;;;;7.30;6.60;;;8.50;99.90;;;;;;5123927;28;20244;-38
2021/03/19 05:12:07;;;;;;;10.13;6.20;;;8.40;99.90;;;;;;5123245;28;20224;-37
2021/03/19 05:14:37;;;;;;;7.88;6.72;;;8.40;99.90;;;;;;5124355;28;20205;-38
2021/03/19 05:17:07;;;;;;;6.03;5.47;;;8.40;99.90;;;;;;5123976;28;20652;-37
2021/03/19 05:19:38;;;;;;;7.20;6.20;;;8.50;99.90;;;;;;5123903;28;20205;-37
2021/03/19 05:22:08;;;;;;;7.18;6.43;;;8.50;99.90;;;;;;5124202;28;20192;-37
2021/03/19 05:24:39;;;;;;;6.20;5.60;;;8.50;99.90;;;;;;5114708;28;20196;-37
2021/03/19 05:27:09;;;;;;;6.22;5.57;;;8.50;99.90;;;;;;5123468;28;20207;-38
2021/03/19 05:29:39;;;;;;;10.52;6.00;;;8.50;99.90;;;;;;5124503;28;20204;-38
2021/03/19 05:32:09;;;;;;;5.18;4.68;;;8.50;99.90;;;;;;5123978;28;20235;-38
2021/03/19 05:34:41;;;;;;;5.60;5.10;;;8.60;99.90;;;;;;5108072;28;20219;-38
2021/03/19 05:37:11;;;;;;;6.45;5.50;;;8.60;99.90;;;;;;5124367;28;20257;-37
2021/03/19 05:39:41;;;;;;;6.07;5.35;;;8.70;99.90;;;;;;5124125;28;20208;-38
2021/03/19 05:42:17;;;;;;;5.00;4.50;;;8.70;99.90;;;;;;5123322;28;20192;-38
2021/03/19 05:44:50;;;;;;;8.90;4.72;;;8.70;99.90;;;;;;5123525;28;20210;-38
2021/03/19 05:47:21;;;;;;;6.18;4.97;;;8.70;99.90;;;;;;5123696;28;20208;-37
2021/03/19 05:49:57;;;;;;;9.68;4.18;;;8.70;99.90;;;;;;5124559;28;20193;-38
2021/03/19 05:52:34;;;;;;;10.38;4.97;;;8.60;99.90;;;;;;5124079;28;20698;-38
2021/03/19 05:55:15;;;;;;;4.15;3.30;;;8.60;99.90;;;;;;5123649;28;20200;-38
2021/03/19 05:57:46;;;;;;;4.18;3.35;;;8.60;99.90;;;;;;5116221;28;20223;-38
2021/03/19 06:00:23;;;;;;;3.75;3.33;;;8.60;99.90;;;;;;5123888;28;20210;-38
2021/03/19 06:02:54;;;;;;;3.33;2.75;;;8.60;99.90;;;;;;5123414;28;20246;-38
2021/03/19 06:05:27;;;;;;;3.15;2.45;;;8.60;99.90;;;;;;5124003;28;20187;-38
2021/03/19 06:07:58;;;;;;;3.50;2.50;;;8.60;99.90;;;;;;5123991;28;20354;-38
2021/03/19 06:10:32;;;;;;;3.00;2.70;;;8.60;99.90;;;;;;5123700;28;20228;-37
2021/03/19 06:13:19;;;;;;;2.97;2.38;;;8.60;99.90;;;;;;5122746;28;20233;-38
2021/03/19 06:15:50;;;;;;;2.25;2.05;;;8.60;99.90;;;;;;5123857;28;20287;-38
2021/03/19 06:18:34;;;;;;;2.28;2.08;;;8.50;99.90;;;;;;5123316;28;20250;-38
2021/03/19 06:21:12;;;;;;;1.80;1.70;;;8.50;99.90;;;;;;5122287;28;20218;-38
2021/03/19 06:23:48;;;;;;;2.80;2.17;;;8.50;99.90;;;;;;5127292;28;20199;-38
2021/03/19 06:26:25;;;;;;;2.15;1.85;;;8.50;99.90;;;;;;5126479;28;20339;-38
2021/03/19 06:29:06;;;;;;;2.50;2.30;;;8.40;99.90;;;;;;5128064;28;20282;-37
2021/03/19 06:31:39;;;;;;;2.08;1.88;;;8.40;99.90;;;;;;5118606;28;20207;-38
2021/03/19 06:34:14;;;;;;;1.88;1.77;;;8.40;99.90;;;;;;5126981;28;20251;-38
2021/03/19 06:36:58;;;;;;;2.30;2.10;;;8.30;99.90;;;;;;5125810;28;20204;-38
2021/03/19 06:39:31;;;;;;;2.40;1.80;;;8.30;99.90;;;;;;5127700;28;20204;-37
2021/03/19 06:42:14;;;;;;;2.05;1.85;;;8.30;99.90;;;;;;5126734;28;20647;-37
2021/03/19 06:44:44;;;;;;;3.00;1.75;;;8.30;99.90;;;;;;5111630;28;20208;-38
2021/03/19 06:47:36;;;;;;;2.55;1.50;;;8.30;99.90;;;;;;5127760;28;20195;-38
2021/03/19 06:50:08;;;;;;;1.48;1.38;;;8.30;99.90;;;;;;5127448;28;20210;-38
2021/03/19 06:52:40;;;;;;;2.50;1.63;;;8.30;99.90;;;;;;5122629;28;20219;-38
2021/03/19 06:55:37;;;;;;;3.25;1.20;;;8.40;99.90;;;;;;5127286;28;20222;-37
2021/03/19 06:58:07;;;;;;;2.67;1.58;;;8.40;99.90;;;;;;5126492;28;20681;-38
2021/03/19 07:00:40;;;;;;;1.77;1.40;;;8.40;99.90;;;;;;5126869;28;20203;-38
2021/03/19 07:03:22;;;;;;;5.30;1.55;;;8.30;99.90;;;;;;5127033;28;20192;-37
2021/03/19 07:06:16;;;;;;;3.28;1.58;;;8.30;99.90;;;;;;5126864;28;20203;-37
2021/03/19 07:08:56;;;;;;;5.40;1.48;;;8.40;99.90;;;;;;5111951;28;20245;-37
2021/03/19 07:12:01;;;;;;;2.38;1.63;;;8.40;99.90;;;;;;5125822;28;20204;-38
2021/03/19 07:15:10;;;;;;;2.70;1.40;;;8.40;99.90;;;;;;5126852;28;20253;-38
2021/03/19 07:17:59;;;;;;;2.33;1.40;;;8.40;99.90;;;;;;5122056;28;20199;-38
2021/03/19 07:21:01;;;;;;;5.82;1.55;;;8.30;99.90;;;;;;5126728;28;20200;-37
2021/03/19 07:23:40;;;;;;;1.27;1.17;;;8.20;99.90;;;;;;5082480;28;20291;-38
2021/03/19 07:26:19;;;;;;;1.45;1.35;;;8.20;99.90;;;;;;5125975;28;20261;-38
2021/03/19 07:29:33;;;;;;;1.65;1.20;;;8.20;99.90;;;;;;5119260;28;20644;-38
2021/03/19 07:32:30;;;;;;;3.72;1.50;;;8.20;99.90;;;;;;5125924;28;20204;-37
2021/03/19 07:35:41;;;;;;;2.42;1.23;;;8.20;99.90;;;;;;5113002;28;20226;-37
2021/03/19 07:38:46;;;;;;;2.00;1.20;;;8.20;99.90;;;;;;5111718;28;20291;-37
2021/03/19 07:41:26;;;;;;;1.98;1.30;;;8.30;99.90;;;;;;5114177;28;20234;-37
2021/03/19 07:44:12;;;;;;;1.60;1.27;;;8.30;99.90;;;;;;5126931;28;20237;-37
2021/03/19 07:46:49;;;;;;;2.05;1.27;;;8.20;99.90;;;;;;5110433;28;20220;-37
2021/03/19 07:49:55;;;;;;;1.80;1.50;;;8.20;99.90;;;;;;5126349;28;20226;-37
2021/03/19 07:52:38;;;;;;;1.27;1.10;;;8.20;99.90;;;;;;5114107;28;20520;-37
2021/03/19 07:55:14;;;;;;;4.53;1.80;;;8.20;99.90;;;;;;5126258;28;20250;-37
2021/03/19 07:57:52;;;;;;;1.85;1.60;;;8.20;99.90;;;;;;5125703;28;20210;-37
2021/03/19 08:00:29;;;;;;;2.45;2.25;;;8.10;99.90;;;;;;5126332;28;20203;-37
2021/03/19 08:03:14;;;;;;;4.60;1.80;;;8.10;99.90;;;;;;5126334;28;20217;-37
2021/03/19 08:05:48;;;;;;;2.72;1.60;;;8.00;99.90;;;;;;5126075;28;20215;-37
2021/03/19 08:08:29;;;;;;;3.05;1.63;;;8.00;99.90;;;;;;5126090;28;20212;-37
2021/03/19 08:11:12;;;;;;;1.38;1.27;;;8.00;99.90;;;;;;5112317;28;20204;-36
2021/03/19 08:14:25;;;;;;;3.25;1.45;;;8.10;99.90;;;;;;5126400;28;20228;-37
2021/03/19 08:17:02;;;;;;;2.05;1.35;;;8.10;99.90;;;;;;5103390;28;20280;-37
2021/03/19 08:19:37;;;;;;;2.03;1.50;;;8.10;99.90;;;;;;5126001;28;20212;-37
2021/03/19 08:22:20;;;;;;;2.38;1.40;;;8.10;99.90;;;;;;5126134;28;20200;-37
2021/03/19 08:24:57;;;;;;;1.70;1.55;;;8.10;99.90;;;;;;5110997;28;20200;-37
2021/03/19 08:27:42;;;;;;;3.83;1.63;;;8.10;99.90;;;;;;5124962;28;20212;-37
2021/03/19 08:30:30;;;;;;;2.13;1.30;;;8.10;99.90;;;;;;5125846;28;20267;-37
2021/03/19 08:33:08;;;;;;;1.20;1.10;;;8.20;99.90;;;;;;5125644;28;20288;-37
2021/03/19 08:35:43;;;;;;;3.03;1.63;;;8.20;99.90;;;;;;5125092;28;20208;-37
2021/03/19 08:38:21;;;;;;;1.80;1.10;;;8.30;99.90;;;;;;5125100;28;20199;-37
2021/03/19 08:41:13;;;;;;;1.75;1.50;;;8.30;99.90;;;;;;5125332;28;20276;-37
2021/03/19 08:43:47;;;;;;;1.88;1.73;;;8.40;99.90;;;;;;5124859;28;20222;-36
2021/03/19 08:46:24;;;;;;;2.03;1.02;;;8.40;99.90;;;;;;5124607;28;20206;-37
2021/03/19 08:48:57;;;;;;;1.30;0.98;;;8.40;99.90;;;;;;5115334;28;20203;-37
2021/03/19 08:51:42;;;;;;;1.95;1.40;;;8.50;99.90;;;;;;5125058;28;20288;-37
2021/03/19 08:54:30;;;;;;;1.80;1.40;;;8.50;99.90;;;;;;5121984;28;20244;-37
2021/03/19 08:57:32;;;;;;;1.17;1.00;;;8.50;99.90;;;;;;5110537;28;20200;-37
2021/03/19 09:00:02;;;;;;;4.28;1.20;;;8.60;99.90;;;;;;5125395;28;20205;-37
2021/03/19 09:02:52;;;;;;;1.00;0.90;;;8.70;99.90;;;;;;5125226;28;20208;-37
2021/03/19 09:05:30;;;;;;;2.50;1.50;;;8.70;99.90;;;;;;5124999;28;20229;-37
2021/03/19 09:08:19;;;;;;;1.02;0.90;;;8.70;99.90;;;;;;5125123;28;20196;-36
2021/03/19 09:11:12;;;;;;;1.55;1.02;;;8.80;99.90;;;;;;5110392;28;20198;-37
2021/03/19 09:14:21;;;;;;;1.95;0.95;;;8.90;99.90;;;;;;5125619;28;20228;-37
2021/03/19 09:16:56;;;;;;;1.83;1.10;;;8.90;99.90;;;;;;5110060;28;20225;-37
2021/03/19 09:20:02;;;;;;;1.42;0.93;;;9.00;99.90;;;;;;5125517;28;20191;-37
2021/03/19 09:22:44;;;;;;;1.52;0.77;;;9.00;99.90;;;;;;5041735;28;20209;-37
2021/03/19 09:25:37;;;;;;;1.48;0.60;;;9.00;99.90;;;;;;5041853;28;20254;-37
2021/03/19 09:28:25;;;;;;;0.65;0.63;;;8.90;99.90;;;;;;5041000;28;20199;-37
2021/03/19 09:30:59;;;;;;;1.60;0.75;;;9.00;99.90;;;;;;5037277;28;20203;-37
2021/03/19 09:34:05;;;;;;;1.45;0.80;;;9.00;99.90;;;;;;5041022;28;20309;-37
2021/03/19 09:37:12;;;;;;;1.65;0.85;;;9.00;99.90;;;;;;5021049;28;20203;-37
2021/03/19 09:40:00;;;;;;;4.03;1.00;;;9.00;99.90;;;;;;4924754;29;20206;-37
2021/03/19 09:43:01;;;;;;;1.45;1.33;;;8.90;99.90;;;;;;4923659;29;20212;-37
2021/03/19 09:45:48;;;;;;;0.63;0.60;;;8.90;99.90;;;;;;4925053;29;20265;-37
2021/03/19 09:48:30;;;;;;;2.88;1.13;;;8.70;99.90;;;;;;4924802;29;20266;-37
2021/03/19 09:51:28;;;;;;;2.05;1.23;;;8.60;99.90;;;;;;4912392;29;20206;-37
2021/03/19 09:53:59;;;;;;;1.80;1.10;;;8.60;99.90;;;;;;4925105;29;20290;-37
2021/03/19 09:56:31;;;;;;;1.23;0.80;;;8.60;99.90;;;;;;4922942;29;20211;-38
2021/03/19 09:59:16;;;;;;;1.83;1.00;;;8.60;99.90;;;;;;4994021;28;20749;-37
2021/03/19 10:01:46;;;;;;;2.33;0.80;;;8.60;99.90;;;;;;5001107;28;20212;-37
2021/03/19 10:04:33;;;;;;;2.80;1.13;;;8.60;99.90;;;;;;5001235;28;20337;-37
2021/03/19 10:07:15;;;;;;;2.15;0.90;;;8.60;99.90;;;;;;5008377;28;20271;-37
2021/03/19 10:09:47;;;;;;;1.65;0.70;;;8.50;99.90;;;;;;5020426;28;20203;-37
2021/03/19 10:12:20;;;;;;;1.00;0.73;;;8.50;99.90;;;;;;5019528;28;20207;-37
2021/03/19 10:14:52;;;;;;;2.25;1.02;;;8.50;99.90;;;;;;5121954;28;20259;-37
2021/03/19 10:17:28;;;;;;;2.60;1.00;;;8.40;99.90;;;;;;5118194;28;20192;-38
2021/03/19 10:20:01;;;;;;;4.30;1.10;;;8.40;99.90;;;;;;5117976;28;20225;-38
2021/03/19 10:22:34;;;;;;;2.90;1.40;;;8.50;99.90;;;;;;5122874;28;20599;-38
2021/03/19 10:25:32;;;;;;;5.20;0.70;;;8.50;99.90;;;;;;5111221;28;20203;-38
2021/03/19 10:28:09;;;;;;;1.88;0.75;;;8.60;99.90;;;;;;5122198;28;20262;-38
2021/03/19 10:30:43;;;;;;;1.30;0.65;;;8.60;99.90;;;;;;5119725;28;20199;-38
2021/03/19 10:33:18;;;;;;;2.15;1.00;;;8.80;99.90;;;;;;5121849;28;20223;-38
2021/03/19 10:35:51;;;;;;;0.82;0.77;;;8.80;99.90;;;;;;5123939;28;20200;-38
2021/03/19 10:38:28;;;;;;;2.08;0.77;;;8.90;99.90;;;;;;5122908;28;20257;-38
2021/03/19 10:41:03;;;;;;;1.50;0.68;;;8.80;99.90;;;;;;5123444;28;20227;-38
2021/03/19 10:43:42;;;;;;;2.50;1.00;;;8.90;99.90;;;;;;5123199;28;20215;-37
2021/03/19 10:46:18;;;;;;;2.20;0.60;;;9.00;99.90;;;;;;5123202;28;20204;-37
2021/03/19 10:48:52;;;;;;;2.53;1.20;;;9.00;99.90;;;;;;5123407;28;20670;-37
2021/03/19 10:51:35;;;;;;;1.92;0.70;;;9.10;99.90;;;;;;5123115;28;20226;-36
2021/03/19 10:54:14;;;;;;;3.58;1.15;;;9.10;99.90;;;;;;5123912;28;20313;-38
2021/03/19 10:56:52;;;;;;;2.35;0.90;;;9.10;99.90;;;;;;5107087;28;20208;-38
2021/03/19 10:59:35;;;;;;;0.65;0.47;;;9.10;99.90;;;;;;5123361;28;20203;-37
2021/03/19 11:02:26;;;;;;;1.33;0.80;;;9.20;99.90;;;;;;5123263;28;20690;-37
2021/03/19 11:05:13;;;;;;;0.82;0.73;;;9.30;99.90;;;;;;5109674;28;20196;-37
2021/03/19 11:07:45;;;;;;;1.58;0.73;;;9.20;99.90;;;;;;5123908;28;20628;-38
2021/03/19 11:10:23;;;;;;;1.02;0.52;;;9.20;99.90;;;;;;5127094;28;20205;-37
2021/03/19 11:13:20;;;;;;;3.25;1.00;;;9.20;99.90;;;;;;5126078;28;20223;-37
2021/03/19 11:15:52;;;;;;;1.63;0.63;;;9.30;99.90;;;;;;5127215;28;20196;-37
2021/03/19 11:18:28;;;;;;;1.80;0.82;;;9.30;99.90;;;;;;5126609;28;20220;-38
2021/03/19 11:21:00;;;;;;;2.17;0.75;;;9.30;99.90;;;;;;5126486;28;20209;-38
2021/03/19 11:23:35;;;;;;;0.70;0.60;;;9.40;99.90;;;;;;5125928;28;20235;-37
2021/03/19 11:26:28;;;;;;;1.75;0.68;;;9.30;99.90;;;;;;5126435;28;20204;-37
2021/03/19 11:29:20;;;;;;;1.48;0.70;;;9.30;99.90;;;;;;5118269;28;20204;-38
2021/03/19 11:32:09;;;;;;;1.08;0.65;;;9.40;99.90;;;;;;5126174;28;20204;-37
2021/03/19 11:34:42;;;;;;;1.25;0.75;;;9.30;99.90;;;;;;5109790;28;20288;-37
2021/03/19 11:37:16;;;;;;;2.40;0.50;;;9.30;99.90;;;;;;5125948;28;20196;-37
2021/03/19 11:39:59;;;;;;;1.95;0.80;;;9.40;99.90;;;;;;5126224;28;20647;-37
2021/03/19 11:42:31;;;;;;;2.05;0.80;;;9.40;99.90;;;;;;5125380;28;20260;-38
2021/03/19 11:45:05;;;;;;;4.38;0.98;;;9.30;99.90;;;;;;5119055;28;20208;-38
2021/03/19 11:47:37;;;;;;;2.47;0.95;;;9.40;99.90;;;;;;5125415;28;20229;-38
2021/03/19 11:50:29;;;;;;;1.45;0.90;;;9.40;99.90;;;;;;5126353;28;20235;-38
2021/03/19 11:53:02;;;;;;;0.85;0.70;;;9.50;99.90;;;;;;5113349;28;20283;-38
2021/03/19 11:55:34;;;;;;;0.70;0.60;;;9.40;99.90;;;;;;5126506;28;20212;-37
2021/03/19 11:58:04;;;;;;;2.92;0.90;;;9.40;99.90;;;;;;5125290;28;20223;-38
2021/03/19 12:00:37;;;;;;;0.82;0.80;;;9.40;99.90;;;;;;5126261;28;20197;-37
2021/03/19 12:03:12;;;;;;;2.30;1.13;;;9.40;99.90;;;;;;5125875;28;20209;-38
2021/03/19 12:05:42;;;;;;;1.30;0.60;;;9.40;99.90;;;;;;5126297;28;20200;-38
2021/03/19 12:08:13;;;;;;;1.15;0.60;;;9.50;99.90;;;;;;5125411;28;20544;-38
2021/03/19 12:10:43;;;;;;;3.03;0.90;;;9.50;99.90;;;;;;5126065;28;20196;-38
2021/03/19 12:13:16;;;;;;;1.30;0.60;;;9.60;99.90;;;;;;5125213;28;20231;-37
2021/03/19 12:15:49;;;;;;;1.38;0.77;;;9.60;99.90;;;;;;5125934;28;20655;-38
2021/03/19 12:18:22;;;;;;;0.70;0.70;;;9.60;99.90;;;;;;5125241;28;20232;-38
2021/03/19 12:20:53;;;;;;;4.97;1.05;;;9.50;99.90;;;;;;5124926;28;20201;-38
2021/03/19 12:23:24;;;;;;;2.38;0.80;;;9.50;99.90;;;;;;5125733;28;20205;-38
2021/03/19 12:25:55;;;;;;;0.90;0.70;;;9.60;99.90;;;;;;5125813;28;20273;-37
2021/03/19 12:28:25;;;;;;;1.52;0.70;;;9.60;99.90;;;;;;5124321;28;20197;-38
2021/03/19 12:30:58;;;;;;;2.05;0.88;;;9.70;99.90;;;;;;5125637;28;20258;-39
2021/03/19 12:33:32;;;;;;;0.85;0.68;;;9.70;99.90;;;;;;5124201;28;20264;-39
2021/03/19 12:36:03;;;;;;;1.05;0.80;;;9.70;99.90;;;;;;5125272;28;20527;-37
2021/03/19 12:38:34;;;;;;;1.00;0.70;;;9.80;99.90;;;;;;5125049;28;20221;-37
2021/03/19 12:41:05;;;;;;;2.30;1.02;;;9.80;99.90;;;;;;5124452;28;20224;-37
2021/03/19 12:43:36;;;;;;;1.20;0.93;;;9.80;99.90;;;;;;5124708;28;20197;-38
2021/03/19 12:46:07;;;;;;;0.77;0.50;;;9.80;99.90;;;;;;5124415;28;20270;-38
2021/03/19 12:48:37;;;;;;;0.70;0.70;;;9.80;99.90;;;;;;5120211;28;20253;-38
2021/03/19 12:51:07;;;;;;;0.95;0.63;;;9.80;99.90;;;;;;5124409;28;20219;-38
2021/03/19 12:53:37;;;;;;;1.50;0.70;;;9.80;99.90;;;;;;5124718;28;20224;-36
2021/03/19 12:56:08;;;;;;;1.80;0.70;;;9.80;99.90;;;;;;5124162;28;20281;-37
2021/03/19 12:58:38;;;;;;;5.22;0.98;;;9.90;99.90;;;;;;5123656;28;20265;-38
2021/03/19 13:01:09;;;;;;;3.00;0.70;;;9.90;99.90;;;;;;5124452;28;20286;-38
2021/03/19 13:03:39;;;;;;;3.20;0.82;;;9.90;99.90;;;;;;5125110;28;20199;-38
2021/03/19 13:06:09;;;;;;;0.47;0.40;;;9.90;99.90;;;;;;5124278;28;20513;-39
2021/03/19 13:08:39;;;;;;;1.50;0.47;;;9.90;99.90;;;;;;5123952;28;20268;-38
2021/03/19 13:11:10;;;;;;;1.50;0.43;;;9.90;99.90;;;;;;5125090;28;20197;-38
2021/03/19 13:13:40;;;;;;;1.75;0.57;;;9.90;99.90;;;;;;5124659;28;20225;-37
2021/03/19 13:16:12;;;;;;;0.75;0.50;;;9.80;99.90;;;;;;5124342;28;20201;-38
2021/03/19 13:18:43;;;;;;;1.27;0.52;;;9.80;99.90;;;;;;5123746;28;20655;-39
2021/03/19 13:21:13;;;;;;;2.58;0.57;;;9.80;99.90;;;;;;5124147;28;20667;-39
2021/03/19 13:23:43;;;;;;;0.93;0.43;;;9.70;99.90;;;;;;5124145;28;20203;-36
2021/03/19 13:26:13;;;;;;;1.50;0.98;;;9.80;99.90;;;;;;5124045;28;20264;-36
2021/03/19 13:28:43;;;;;;;0.70;0.60;;;9.70;99.90;;;;;;5121762;28;20197;-37
2021/03/19 13:31:14;;;;;;;2.65;0.80;;;9.80;99.90;;;;;;5123946;28;20655;-38
2021/03/19 13:33:44;;;;;;;0.82;0.60;;;9.70;99.90;;;;;;5124006;28;20276;-38
2021/03/19 13:36:15;;;;;;;1.40;0.60;;;9.70;99.90;;;;;;5122484;28;20257;-37
2021/03/19 13:38:45;;;;;;;5.05;0.82;;;9.60;99.90;;;;;;5124048;28;20673;-35
2021/03/19 13:41:36;;;;;;;1.65;0.60;;;9.50;99.90;;;;;;5123362;28;20231;-35
2021/03/19 13:44:08;;;;;;;0.85;0.60;;;9.50;99.90;;;;;;5124686;28;20229;-37
2021/03/19 13:46:39;;;;;;;1.33;0.60;;;9.40;99.90;;;;;;5123695;28;20230;-37
2021/03/19 13:49:09;;;;;;;2.55;0.77;;;9.20;99.90;;;;;;5110836;28;20612;-37
2021/03/19 13:51:39;;;;;;;1.83;0.85;;;9.00;99.90;;;;;;5122824;28;20613;-37
2021/03/19 13:54:09;;;;;;;1.20;1.10;;;9.00;99.90;;;;;;5124007;28;20228;-37